首页
METAR-TAF:

METAR-TAF

机场 :

馬紹爾群島國際機場

馬久羅, 馬紹爾群島

纬度: 07-04N, 经度: 171-17E, 海拔: 2米

当前天气观测

该预报发布于9小时和17分钟前的07:50 UTC
风速10节,风向东转东北
温度 28°C
湿度 79%
气压 1009 hPa
能見度: 24.1公里
少量云层高于1400英尺
散云层高于5000英尺
多云层高于12000英尺
阴天层高于30000英尺

METAR: PKMJ 170750Z 07010KT 15SM FEW014 SCT050 BKN120 OVC300 28/24 A2979 RMK LAST

时间: 05:07 (17:07 UTC)

预报

该预报发布于5小时和47分钟前的11:20 UTC
预报有效从17日的 12点(UTC)到 18日的 12点(UTC)
风速14节,风向东转东北,有时为22节阵风
能見度: 9.7公里
散云层高于1400英尺
多云层高于4000英尺
多云层高于10000英尺
阵雨
短暂存在
从 17日的 12点(UTC)到 17日的 16点(UTC)
风速15节,风向多变,有时为25节阵风
能見度: 6.4公里
散云层高于1000英尺
多云层高于3000英尺
阵雨,

TAF: PKMJ 171120Z 1712/1812 07014G22KT 6SM SHRA SCT014 BKN040 BKN100 TEMPO 1712/1716 VRB15G25KT 4SM SHRA SCT010 BKN030

超过4000个机场的气象观测和天气预报(METAR&TAF报告)。

可查询的气象台以黄色和红色小点在地图上表示。

将鼠标移到小点上方,可查看气象台名称。

然后点击查看天气观测和预报。

如需切换地图:点击带黑十字的绿色按钮放大地图;点击带横线的绿色按钮缩小地图;或者点击绿色箭头查看邻近地区的地图。


METAR-TAF: